createdAt,value
2019-02-22T00:00:42.675Z,101886.41
2019-02-22T00:03:16.294Z,101893.69
2019-02-22T00:05:49.742Z,101893.32
2019-02-22T00:08:23.233Z,101902.68
2019-02-22T00:10:56.947Z,101899.77
2019-02-22T00:13:30.544Z,101909.11
2019-02-22T00:16:03.996Z,101921.03
2019-02-22T00:18:37.384Z,101918.41
2019-02-22T00:21:10.820Z,101928.22
2019-02-22T00:23:44.306Z,101930.43
2019-02-22T00:26:17.836Z,101940.22
2019-02-22T00:28:51.431Z,101941.89
2019-02-22T00:31:24.850Z,101949.19
2019-02-22T00:33:58.572Z,101952.56
2019-02-22T00:36:32.091Z,101952.58
2019-02-22T00:39:05.611Z,101964.50
2019-02-22T00:41:39.079Z,101967.47
2019-02-22T00:44:12.511Z,101970.92
2019-02-22T00:46:46.037Z,101974.31
2019-02-22T00:49:19.709Z,101978.17
2019-02-22T00:51:53.109Z,101987.19
2019-02-22T00:54:26.625Z,101991.40
2019-02-22T00:57:00.038Z,101987.17
2019-02-22T00:59:33.659Z,101992.70
2019-02-22T01:02:07.127Z,102002.13
2019-02-22T01:04:40.574Z,102002.16
2019-02-22T01:07:14.025Z,101995.70
2019-02-22T01:09:47.539Z,101992.31
2019-02-22T01:12:20.935Z,101996.21
2019-02-22T01:14:54.567Z,102011.09
2019-02-22T01:17:28.132Z,102013.23
2019-02-22T01:20:01.677Z,102014.48
2019-02-22T01:22:35.127Z,102017.48
2019-02-22T01:25:08.656Z,102030.70
2019-02-22T01:27:42.107Z,102025.63
2019-02-22T01:30:15.562Z,102039.30
2019-02-22T01:32:49.017Z,102046.16
2019-02-22T01:35:22.622Z,102055.96
2019-02-22T01:37:56.199Z,102054.66
2019-02-22T01:40:29.680Z,102063.19
2019-02-22T01:43:03.226Z,102070.02
2019-02-22T01:45:36.704Z,102075.59
2019-02-22T01:48:10.119Z,102074.33
2019-02-22T01:50:43.608Z,102070.06
2019-02-22T01:53:17.084Z,102076.45
2019-02-22T01:55:50.566Z,102080.31
2019-02-22T01:58:24.120Z,102082.86
2019-02-22T02:00:57.536Z,102078.19
2019-02-22T02:03:31.031Z,102083.27
2019-02-22T02:06:04.504Z,102083.36
2019-02-22T02:08:38.113Z,102090.17
2019-02-22T02:11:11.550Z,102084.19
2019-02-22T02:13:45.073Z,102094.86
2019-02-22T02:16:18.559Z,102094.03
2019-02-22T02:18:52.090Z,102089.34
2019-02-22T02:21:25.627Z,102098.73
2019-02-22T02:23:59.299Z,102096.59
2019-02-22T02:26:32.682Z,102095.75
2019-02-22T02:29:06.155Z,102107.27
2019-02-22T02:31:39.675Z,102107.27
2019-02-22T02:34:13.168Z,102114.52
2019-02-22T02:36:46.728Z,102110.68
2019-02-22T02:39:20.301Z,102118.34
2019-02-22T02:41:53.716Z,102115.33
2019-02-22T02:44:27.226Z,102123.03
2019-02-22T02:47:00.805Z,102124.31
2019-02-22T02:49:34.169Z,102130.28
2019-02-22T02:52:07.761Z,102133.70
2019-02-22T02:54:41.259Z,102138.82
2019-02-22T02:57:14.665Z,102142.24
2019-02-22T02:59:48.181Z,102151.20
2019-02-22T03:02:23.249Z,102151.66
2019-02-22T03:04:56.643Z,102149.93
2019-02-22T03:07:40.737Z,102154.22
2019-02-22T03:10:14.179Z,102152.50
2019-02-22T03:12:47.576Z,102161.04
2019-02-22T03:15:21.015Z,102154.62
2019-02-22T03:17:54.651Z,102159.31
2019-02-22T03:20:28.200Z,102165.75
2019-02-22T03:23:01.632Z,102173.84
2019-02-22T03:25:35.071Z,102173.84
2019-02-22T03:28:08.417Z,102175.97
2019-02-22T03:30:41.829Z,102178.97
2019-02-22T03:33:15.155Z,102172.55
2019-02-22T03:35:48.625Z,102176.83
2019-02-22T03:38:22.038Z,102181.53
2019-02-22T03:40:55.472Z,102187.94
2019-02-22T03:43:28.942Z,102194.75
2019-02-22T03:46:02.295Z,102202.02
2019-02-22T03:48:35.703Z,102211.40
2019-02-22T03:51:09.272Z,102221.64
2019-02-22T03:53:44.515Z,102225.50
2019-02-22T03:56:17.921Z,102229.77
2019-02-22T03:58:51.625Z,102227.62
2019-02-22T04:01:25.037Z,102231.91
2019-02-22T04:03:58.534Z,102236.58
2019-02-22T04:06:32.213Z,102235.75
2019-02-22T04:09:08.769Z,102244.28
2019-02-22T04:11:45.644Z,102243.86
2019-02-22T04:14:17.333Z,102251.53
2019-02-22T04:16:50.695Z,102248.98
2019-02-22T04:19:24.113Z,102260.92
2019-02-22T04:21:57.465Z,102259.66
2019-02-22T04:24:30.963Z,102263.89
2019-02-22T04:27:04.400Z,102269.02
2019-02-22T04:29:37.754Z,102276.30
2019-02-22T04:32:11.150Z,102283.11
2019-02-22T04:34:44.615Z,102288.67
2019-02-22T04:37:18.001Z,102291.23
2019-02-22T04:39:51.375Z,102289.09
2019-02-22T04:42:24.787Z,102277.58
2019-02-22T04:44:58.233Z,102286.95
2019-02-22T04:47:31.688Z,102280.55
2019-02-22T04:50:06.385Z,102280.13
2019-02-22T04:52:39.754Z,102286.95
2019-02-22T04:55:13.253Z,102294.66
2019-02-22T04:57:46.679Z,102304.90
2019-02-22T05:00:20.104Z,102309.61
2019-02-22T05:02:53.494Z,102311.30
2019-02-22T05:05:27.043Z,102308.75
2019-02-22T05:08:00.406Z,102317.29
2019-02-22T05:10:34.296Z,102322.40
2019-02-22T05:13:07.766Z,102324.54
2019-02-22T05:15:41.243Z,102331.80
2019-02-22T05:18:14.662Z,102335.20
2019-02-22T05:20:48.215Z,102340.74
2019-02-22T05:23:21.582Z,102344.61
2019-02-22T05:25:54.953Z,102354.44
2019-02-22T05:28:28.300Z,102353.56
2019-02-22T05:31:01.901Z,102357.82
2019-02-22T05:33:35.320Z,102360.80
2019-02-22T05:36:08.700Z,102368.92
2019-02-22T05:38:42.136Z,102371.08
2019-02-22T05:41:15.538Z,102370.66
2019-02-22T05:43:49.048Z,102372.78
2019-02-22T05:46:22.791Z,102380.05
2019-02-22T05:48:56.293Z,102384.75
2019-02-22T05:51:29.801Z,102395.80
2019-02-22T05:54:03.283Z,102398.34
2019-02-22T05:56:36.729Z,102401.34
2019-02-22T05:59:10.140Z,102401.79
2019-02-22T06:01:43.670Z,102404.77
2019-02-22T06:04:17.066Z,102407.34
2019-02-22T06:06:50.548Z,102411.16
2019-02-22T06:09:23.938Z,102412.44
2019-02-22T06:11:57.389Z,102416.72
2019-02-22T06:14:30.851Z,102426.95
2019-02-22T06:17:14.247Z,102431.65
2019-02-22T06:19:39.407Z,102434.63
2019-02-22T06:22:12.848Z,102438.45
2019-02-22T06:24:46.279Z,102450.83
2019-02-22T06:27:19.744Z,102450.80
2019-02-22T06:29:53.154Z,102452.42
2019-02-22T06:32:26.611Z,102457.91
2019-02-22T06:34:59.963Z,102459.16
2019-02-22T06:37:33.461Z,102470.70
2019-02-22T06:40:09.170Z,102480.53
2019-02-22T06:42:45.677Z,102483.49
2019-02-22T06:45:17.750Z,102488.13
2019-02-22T06:47:51.591Z,102494.47
2019-02-22T06:50:33.335Z,102497.48
2019-02-22T06:53:00.080Z,102501.32
2019-02-22T06:55:33.551Z,102506.46
2019-02-22T06:58:07.020Z,102515.34
2019-02-22T07:00:40.481Z,102515.39
2019-02-22T07:03:13.997Z,102522.14
2019-02-22T07:05:47.479Z,102528.16
2019-02-22T07:08:20.876Z,102527.30
2019-02-22T07:10:58.873Z,102528.19
2019-02-22T07:13:32.269Z,102537.83
2019-02-22T07:16:05.730Z,102539.31
2019-02-22T07:18:39.064Z,102556.50
2019-02-22T07:21:12.513Z,102558.20
2019-02-22T07:23:45.924Z,102566.37
2019-02-22T07:26:19.451Z,102571.15
2019-02-22T07:28:52.849Z,102579.02
2019-02-22T07:31:26.454Z,102591.45
2019-02-22T07:33:59.861Z,102594.86
2019-02-22T07:36:33.317Z,102597.03
2019-02-22T07:39:07.276Z,102608.89
2019-02-22T07:41:40.726Z,102612.93
2019-02-22T07:44:14.192Z,102619.80
2019-02-22T07:46:47.692Z,102625.48
2019-02-22T07:49:26.190Z,102633.62
2019-02-22T07:51:59.660Z,102636.61
2019-02-22T07:54:33.082Z,102645.62
2019-02-22T07:57:06.625Z,102649.50
2019-02-22T07:59:40.067Z,102656.17
2019-02-22T08:02:13.495Z,102673.99
2019-02-22T08:04:47.128Z,102674.97
2019-02-22T08:07:20.670Z,102679.58
2019-02-22T08:09:54.015Z,102693.82
2019-02-22T08:12:27.540Z,102695.43
2019-02-22T08:15:00.950Z,102709.84
2019-02-22T08:17:34.387Z,102703.25
2019-02-22T08:20:08.945Z,102719.00
2019-02-22T08:22:42.437Z,102730.61
2019-02-22T08:25:15.900Z,102727.84
2019-02-22T08:27:53.870Z,102739.91
2019-02-22T08:30:24.469Z,102742.41
2019-02-22T08:32:57.902Z,102755.98
2019-02-22T08:35:31.598Z,102752.06
2019-02-22T08:38:05.165Z,102758.70
2019-02-22T08:40:38.598Z,102760.88
2019-02-22T08:43:12.023Z,102769.75
2019-02-22T08:45:45.364Z,102771.61
2019-02-22T08:48:18.888Z,102772.66
2019-02-22T08:50:52.224Z,102779.74
2019-02-22T08:53:25.581Z,102780.88
2019-02-22T08:55:58.967Z,102788.09
2019-02-22T08:58:32.370Z,102791.70
2019-02-22T09:01:05.763Z,102791.64
2019-02-22T09:03:49.666Z,102810.55
2019-02-22T09:06:14.197Z,102800.14
2019-02-22T09:08:47.907Z,102819.16
2019-02-22T09:11:21.235Z,102825.69
2019-02-22T09:13:54.684Z,102829.83
2019-02-22T09:16:28.190Z,102840.88
2019-02-22T09:19:01.629Z,102850.73
2019-02-22T09:21:35.077Z,102851.77
2019-02-22T09:24:08.556Z,102855.81
2019-02-22T09:26:41.983Z,102861.92
2019-02-22T09:29:15.401Z,102866.63
2019-02-22T09:31:48.876Z,102869.76
2019-02-22T09:34:22.313Z,102885.64
2019-02-22T09:36:55.633Z,102891.96
2019-02-22T09:39:29.180Z,102888.17
2019-02-22T09:42:02.810Z,102900.00
2019-02-22T09:44:36.432Z,102905.66
2019-02-22T09:47:10.068Z,102911.98
2019-02-22T09:49:43.430Z,102913.45
2019-02-22T09:52:17.036Z,102917.75
2019-02-22T09:54:50.528Z,102915.29
2019-02-22T09:57:23.931Z,102929.13
2019-02-22T09:59:57.407Z,102929.27
2019-02-22T10:02:30.799Z,102926.59
2019-02-22T10:05:05.555Z,102932.88
2019-02-22T10:07:38.999Z,102931.36
2019-02-22T10:10:12.932Z,102931.36
2019-02-22T10:12:46.254Z,102937.83
2019-02-22T10:15:19.787Z,102936.17
2019-02-22T10:17:53.197Z,102943.02
2019-02-22T10:20:26.620Z,102948.99
2019-02-22T10:22:59.982Z,102956.20
2019-02-22T10:25:33.340Z,102965.17
2019-02-22T10:28:16.991Z,102966.63
2019-02-22T10:30:41.842Z,102977.80
2019-02-22T10:33:15.299Z,102975.68
2019-02-22T10:35:48.636Z,102980.06
2019-02-22T10:38:22.055Z,102980.02
2019-02-22T10:40:55.657Z,102995.68
2019-02-22T10:43:29.263Z,102989.43
2019-02-22T10:46:02.731Z,102992.05
2019-02-22T10:48:36.080Z,102996.20
2019-02-22T10:51:10.575Z,102995.44
2019-02-22T10:53:43.967Z,103005.95
2019-02-22T10:56:17.443Z,103005.95
2019-02-22T10:58:50.843Z,102996.20
2019-02-22T11:01:24.294Z,102990.72
2019-02-22T11:03:57.738Z,102997.55
2019-02-22T11:06:31.334Z,102997.55
2019-02-22T11:09:07.662Z,102997.62
2019-02-22T11:11:41.064Z,102998.95
2019-02-22T11:14:14.542Z,103005.10
2019-02-22T11:16:47.944Z,102995.66
2019-02-22T11:19:21.461Z,102992.39
2019-02-22T11:21:54.886Z,102988.50
2019-02-22T11:24:28.255Z,102990.66
2019-02-22T11:27:01.654Z,102986.49
2019-02-22T11:29:35.099Z,102981.92
2019-02-22T11:32:08.596Z,102973.13
2019-02-22T11:34:42.228Z,102975.86
2019-02-22T11:37:15.695Z,102966.00
2019-02-22T11:39:49.178Z,102981.82
2019-02-22T11:42:22.550Z,102980.05
2019-02-22T11:44:56.039Z,102985.00
2019-02-22T11:47:29.464Z,102976.84
2019-02-22T11:50:02.925Z,102995.91
2019-02-22T11:52:36.294Z,102997.55
2019-02-22T11:55:11.369Z,103008.80
2019-02-22T11:57:45.101Z,103006.73
2019-02-22T12:00:20.697Z,103009.30
2019-02-22T12:02:54.219Z,103013.37
2019-02-22T12:05:27.715Z,103026.47
2019-02-22T12:08:03.522Z,103027.05
2019-02-22T12:10:36.580Z,103035.00
2019-02-22T12:13:10.045Z,103034.05
2019-02-22T12:15:43.442Z,103040.59
2019-02-22T12:18:17.039Z,103040.89
2019-02-22T12:20:50.616Z,103032.55
2019-02-22T12:23:23.984Z,103026.77
2019-02-22T12:25:57.367Z,103026.47
2019-02-22T12:28:30.762Z,103016.37
2019-02-22T12:31:04.578Z,103020.41
2019-02-22T12:33:38.019Z,103027.38
2019-02-22T12:36:11.425Z,103028.81
2019-02-22T12:38:44.921Z,103025.84
2019-02-22T12:41:18.322Z,103025.33
2019-02-22T12:43:51.741Z,103032.20
2019-02-22T12:46:25.238Z,103032.84
2019-02-22T12:48:58.627Z,103038.46
2019-02-22T12:51:32.250Z,103053.84
2019-02-22T12:54:05.619Z,103057.77
2019-02-22T12:56:56.530Z,103056.44
2019-02-22T12:59:14.280Z,103065.28
2019-02-22T13:01:47.772Z,103067.53
2019-02-22T13:04:21.318Z,103078.71
2019-02-22T13:06:54.803Z,103078.83
2019-02-22T13:09:36.177Z,103084.14
2019-02-22T13:12:13.398Z,103084.13
2019-02-22T13:14:38.500Z,103078.45
2019-02-22T13:17:11.838Z,103080.45
2019-02-22T13:19:45.266Z,103082.72
2019-02-22T13:22:18.600Z,103071.80
2019-02-22T13:24:52.101Z,103082.16
2019-02-22T13:27:25.561Z,103080.73
2019-02-22T13:29:59.456Z,103089.62
2019-02-22T13:32:32.830Z,103093.16
2019-02-22T13:35:06.261Z,103088.12
2019-02-22T13:37:39.660Z,103089.95
2019-02-22T13:40:15.239Z,103098.77
2019-02-22T13:42:48.652Z,103100.54
2019-02-22T13:45:26.812Z,103098.77
2019-02-22T13:47:57.524Z,103101.17
2019-02-22T13:50:31.098Z,103106.58
2019-02-22T13:53:04.573Z,103100.95
2019-02-22T13:55:37.953Z,103111.81
2019-02-22T13:58:11.419Z,103121.89
2019-02-22T14:00:44.853Z,103114.67
2019-02-22T14:03:18.471Z,103114.15
2019-02-22T14:05:51.882Z,103106.16
2019-02-22T14:08:25.284Z,103097.77
2019-02-22T14:10:58.651Z,103093.72
2019-02-22T14:13:32.113Z,103096.03
2019-02-22T14:16:05.648Z,103089.11
2019-02-22T14:18:39.164Z,103088.70
2019-02-22T14:21:12.712Z,103096.55
2019-02-22T14:23:46.272Z,103089.30
2019-02-22T14:26:19.645Z,103093.95
2019-02-22T14:28:53.051Z,103113.48
2019-02-22T14:31:26.489Z,103112.50
2019-02-22T14:33:59.984Z,103121.28
2019-02-22T14:36:33.466Z,103125.16
2019-02-22T14:39:08.184Z,103117.53
2019-02-22T14:41:41.574Z,103122.71
2019-02-22T14:44:14.978Z,103122.39
2019-02-22T14:46:48.545Z,103128.64
2019-02-22T14:49:21.986Z,103146.11
2019-02-22T14:51:55.398Z,103148.93
2019-02-22T14:54:28.811Z,103147.88
2019-02-22T14:57:02.342Z,103144.61
2019-02-22T14:59:35.782Z,103155.22
2019-02-22T15:02:09.188Z,103159.80
2019-02-22T15:04:42.557Z,103159.77
2019-02-22T15:07:18.998Z,103162.31
2019-02-22T15:09:52.391Z,103156.80
2019-02-22T15:12:25.808Z,103162.94
2019-02-22T15:14:59.346Z,103163.29
2019-02-22T15:17:34.588Z,103162.76
2019-02-22T15:20:09.093Z,103169.16
2019-02-22T15:22:42.480Z,103179.63
2019-02-22T15:25:17.331Z,103189.84
2019-02-22T15:27:50.754Z,103191.47
2019-02-22T15:30:24.257Z,103179.56
2019-02-22T15:32:57.609Z,103178.83
2019-02-22T15:35:31.178Z,103176.92
2019-02-22T15:38:04.691Z,103192.61
2019-02-22T15:40:39.365Z,103193.97
2019-02-22T15:43:13.204Z,103198.66
2019-02-22T15:45:47.487Z,103205.16
2019-02-22T15:48:21.150Z,103201.22
2019-02-22T15:50:54.539Z,103199.42
2019-02-22T15:53:27.994Z,103200.13
2019-02-22T15:56:01.367Z,103206.27
2019-02-22T15:58:34.788Z,103205.05
2019-02-22T16:01:08.247Z,103200.94
2019-02-22T16:03:49.109Z,103208.20
2019-02-22T16:06:22.532Z,103214.05
2019-02-22T16:08:56.053Z,103212.16
2019-02-22T16:11:29.647Z,103211.05
2019-02-22T16:14:03.045Z,103214.34
2019-02-22T16:16:36.496Z,103205.16
2019-02-22T16:19:09.919Z,103205.16
2019-02-22T16:21:43.362Z,103215.22
2019-02-22T16:24:16.692Z,103215.22
2019-02-22T16:26:51.692Z,103213.09
2019-02-22T16:29:25.200Z,103213.54
2019-02-22T16:31:58.787Z,103215.94
2019-02-22T16:34:42.882Z,103224.62
2019-02-22T16:37:07.459Z,103224.62
2019-02-22T16:39:40.830Z,103228.78
2019-02-22T16:42:14.274Z,103232.48
2019-02-22T16:44:47.594Z,103223.65
2019-02-22T16:47:20.989Z,103223.65
2019-02-22T16:49:54.359Z,103235.05
2019-02-22T16:52:27.802Z,103235.23
2019-02-22T16:55:01.238Z,103236.95
2019-02-22T16:57:34.749Z,103237.80
2019-02-22T17:00:10.764Z,103237.80
2019-02-22T17:02:44.184Z,103258.62
2019-02-22T17:05:17.784Z,103258.88
2019-02-22T17:07:51.286Z,103259.16
2019-02-22T17:10:24.676Z,103264.05
2019-02-22T17:12:58.168Z,103273.64
2019-02-22T17:15:31.683Z,103273.64
2019-02-22T17:18:05.183Z,103276.43
2019-02-22T17:20:38.568Z,103282.57
2019-02-22T17:23:12.035Z,103286.25
2019-02-22T17:25:45.545Z,103285.55
2019-02-22T17:28:18.972Z,103290.09
2019-02-22T17:30:52.326Z,103278.17
2019-02-22T17:33:25.727Z,103279.01
2019-02-22T17:35:59.198Z,103273.14
2019-02-22T17:38:32.800Z,103273.14
2019-02-22T17:41:06.228Z,103284.23
2019-02-22T17:43:39.645Z,103285.07
2019-02-22T17:46:13.048Z,103287.67
2019-02-22T17:48:46.451Z,103289.62
2019-02-22T17:51:19.825Z,103294.11
2019-02-22T17:53:53.157Z,103293.38
2019-02-22T17:56:26.534Z,103299.27
2019-02-22T17:58:59.866Z,103300.08
2019-02-22T18:01:33.265Z,103293.98
2019-02-22T18:04:06.782Z,103296.30
2019-02-22T18:06:40.440Z,103292.89
2019-02-22T18:09:13.822Z,103287.69
2019-02-22T18:11:47.183Z,103275.77
2019-02-22T18:14:20.537Z,103269.29
2019-02-22T18:16:54.008Z,103273.28
2019-02-22T18:19:27.432Z,103275.67
2019-02-22T18:22:00.924Z,103265.08
2019-02-22T18:24:34.323Z,103269.23
2019-02-22T18:27:07.852Z,103274.03
2019-02-22T18:29:41.292Z,103276.75
2019-02-22T18:32:14.661Z,103287.37
2019-02-22T18:34:47.983Z,103297.02
2019-02-22T18:37:21.568Z,103296.38
2019-02-22T18:39:55.130Z,103305.94
2019-02-22T18:42:29.141Z,103302.00
2019-02-22T18:45:02.613Z,103315.33
2019-02-22T18:47:36.060Z,103326.83
2019-02-22T18:50:11.019Z,103320.09
2019-02-22T18:52:44.571Z,103313.20
2019-02-22T18:55:18.454Z,103311.02
2019-02-22T18:57:51.929Z,103315.99
2019-02-22T19:00:25.474Z,103321.00
2019-02-22T19:02:59.591Z,103318.47
2019-02-22T19:05:33.075Z,103314.53
2019-02-22T19:08:06.627Z,103312.56
2019-02-22T19:10:40.186Z,103314.09
2019-02-22T19:13:13.554Z,103323.30
2019-02-22T19:15:47.090Z,103321.48
2019-02-22T19:18:20.666Z,103325.19
2019-02-22T19:20:54.078Z,103327.98
2019-02-22T19:23:27.682Z,103328.23
2019-02-22T19:26:01.132Z,103334.42
2019-02-22T19:28:34.499Z,103336.74
2019-02-22T19:31:07.920Z,103339.13
2019-02-22T19:33:41.265Z,103343.17
2019-02-22T19:36:14.634Z,103341.64
2019-02-22T19:38:48.142Z,103330.34
2019-02-22T19:41:21.603Z,103336.77
2019-02-22T19:43:54.926Z,103336.27
2019-02-22T19:46:28.506Z,103323.86
2019-02-22T19:49:02.081Z,103323.65
2019-02-22T19:51:35.604Z,103312.91
2019-02-22T19:54:09.341Z,103326.67
2019-02-22T19:56:42.934Z,103320.03
2019-02-22T19:59:16.486Z,103323.55
2019-02-22T20:01:50.008Z,103323.80
2019-02-22T20:04:23.572Z,103322.28
2019-02-22T20:06:57.175Z,103322.52
2019-02-22T20:09:30.684Z,103313.76
2019-02-22T20:12:04.341Z,103304.77
2019-02-22T20:14:37.733Z,103307.95
2019-02-22T20:17:11.203Z,103310.45
2019-02-22T20:19:44.943Z,103310.63
2019-02-22T20:22:18.695Z,103317.05
2019-02-22T20:24:52.381Z,103324.69
2019-02-22T20:27:26.166Z,103323.42
2019-02-22T20:29:59.877Z,103329.52
2019-02-22T20:32:33.697Z,103339.38
2019-02-22T20:35:22.449Z,103352.25
2019-02-22T20:37:56.054Z,103354.84
2019-02-22T20:40:29.565Z,103365.97
2019-02-22T20:43:03.149Z,103368.00
2019-02-22T20:45:36.749Z,103357.83
2019-02-22T20:48:10.320Z,103357.20
2019-02-22T20:50:43.856Z,103364.19
2019-02-22T20:53:17.536Z,103360.86
2019-02-22T20:55:51.321Z,103362.59
2019-02-22T20:58:24.980Z,103369.48
2019-02-22T21:00:58.657Z,103379.25
2019-02-22T21:03:32.188Z,103375.09
2019-02-22T21:06:05.650Z,103371.30
2019-02-22T21:08:39.437Z,103374.13
2019-02-22T21:11:13.032Z,103381.72
2019-02-22T21:13:46.557Z,103364.32
2019-02-22T21:16:20.216Z,103371.91
2019-02-22T21:18:54.376Z,103381.08
2019-02-22T21:21:28.085Z,103392.28
2019-02-22T21:24:02.057Z,103385.69
2019-02-22T21:26:35.763Z,103388.72
2019-02-22T21:29:09.377Z,103387.33
2019-02-22T21:31:43.212Z,103384.57
2019-02-22T21:34:17.082Z,103384.64
2019-02-22T21:36:50.777Z,103383.84
2019-02-22T21:39:25.674Z,103389.07
2019-02-22T21:41:59.280Z,103390.66
2019-02-22T21:44:32.925Z,103396.30
2019-02-22T21:47:06.597Z,103395.44
2019-02-22T21:49:40.132Z,103403.23
2019-02-22T21:52:13.722Z,103406.86
2019-02-22T21:54:47.330Z,103400.72
2019-02-22T21:57:22.593Z,103401.52
2019-02-22T21:59:56.337Z,103403.57
2019-02-22T22:02:29.929Z,103398.59
2019-02-22T22:05:11.697Z,103400.25
2019-02-22T22:07:45.327Z,103403.57
2019-02-22T22:10:18.954Z,103420.11
2019-02-22T22:12:52.714Z,103428.55
2019-02-22T22:15:26.361Z,103428.48
2019-02-22T22:17:59.900Z,103433.70
2019-02-22T22:20:33.573Z,103425.73
2019-02-22T22:23:07.394Z,103418.63
2019-02-22T22:25:41.177Z,103413.50
2019-02-22T22:28:15.037Z,103424.54
2019-02-22T22:30:48.734Z,103415.16
2019-02-22T22:33:23.124Z,103415.52
2019-02-22T22:35:56.712Z,103425.63
2019-02-22T22:38:30.354Z,103436.34
2019-02-22T22:41:04.044Z,103444.79
2019-02-22T22:43:37.910Z,103457.92
2019-02-22T22:46:11.526Z,103461.28
2019-02-22T22:48:50.311Z,103453.00
2019-02-22T22:51:20.588Z,103454.91
2019-02-22T22:53:54.178Z,103454.47
2019-02-22T22:56:27.888Z,103452.91
2019-02-22T22:59:01.406Z,103450.56
2019-02-22T23:01:35.173Z,103455.05
2019-02-22T23:04:08.905Z,103460.13
2019-02-22T23:06:42.577Z,103461.22
2019-02-22T23:09:21.137Z,103471.64
2019-02-22T23:11:55.378Z,103475.31
2019-02-22T23:14:28.967Z,103483.68
2019-02-22T23:17:02.513Z,103484.19
2019-02-22T23:19:36.516Z,103477.77
2019-02-22T23:22:10.276Z,103486.21
2019-02-22T23:24:43.901Z,103482.42
2019-02-22T23:27:17.437Z,103482.61
2019-02-22T23:29:50.928Z,103484.27
2019-02-22T23:32:24.329Z,103484.45
2019-02-22T23:34:57.782Z,103479.39
2019-02-22T23:37:31.466Z,103481.23
2019-02-22T23:40:05.787Z,103487.19
2019-02-22T23:42:39.295Z,103484.66
2019-02-22T23:45:12.851Z,103488.34
2019-02-22T23:47:46.442Z,103489.78
2019-02-22T23:50:20.354Z,103491.84
2019-02-22T23:52:53.982Z,103479.11
2019-02-22T23:55:27.754Z,103476.11
2019-02-22T23:58:01.395Z,103463.02
